Time;durP1;ratioP1;P1;durP2;ratioP2;P2;SDS_P1;SDS_P2;PMS_P1;PMS_P2;Temp;Humidity;BMP_temperature;BMP_pressure;BME280_temperature;BME280_humidity;BME280_pressure;Samples;Min_cycle;Max_cycle;Signal;HPM_P1;HPM_P2
2023/08/18 00:00:00;;;;;;;61.45;55.45;;;563.50;2432.00;;;;;;4992669;28;20026;-61
2023/08/18 00:02:26;;;;;;;66.15;59.67;;;563.50;2432.00;;;;;;4992506;28;20104;-63
2023/08/18 00:04:52;;;;;;;63.63;57.50;;;563.60;2432.00;;;;;;4992384;28;20465;-60
2023/08/18 00:07:17;;;;;;;63.08;57.03;;;563.60;2432.00;;;;;;4992470;28;20457;-61
2023/08/18 00:09:46;;;;;;;61.72;55.63;;;563.50;2432.00;;;;;;4992231;28;20109;-60
2023/08/18 00:12:12;;;;;;;67.75;60.90;;;563.40;2432.00;;;;;;4992134;28;20421;-61
2023/08/18 00:14:37;;;;;;;61.42;55.55;;;563.40;2432.00;;;;;;4992483;28;20023;-60
2023/08/18 00:17:03;;;;;;;63.97;57.67;;;563.40;2432.00;;;;;;4992121;28;20034;-61
2023/08/18 00:19:29;;;;;;;63.67;57.55;;;563.20;2432.00;;;;;;4991554;28;20457;-60
2023/08/18 00:21:54;;;;;;;62.72;56.83;;;563.20;2432.00;;;;;;4991768;28;20026;-60
2023/08/18 00:24:20;;;;;;;63.47;57.13;;;563.20;2432.00;;;;;;4992298;28;20057;-60
2023/08/18 00:26:46;;;;;;;62.90;56.88;;;563.20;2432.00;;;;;;4992280;28;20022;-60
2023/08/18 00:29:12;;;;;;;62.58;56.25;;;563.20;2432.00;;;;;;4991573;28;20038;-61
2023/08/18 00:31:38;;;;;;;61.83;56.13;;;563.20;2432.00;;;;;;4992365;28;20080;-59
2023/08/18 00:34:04;;;;;;;63.13;57.17;;;563.20;2432.00;;;;;;4992013;28;20432;-61
2023/08/18 00:36:31;;;;;;;64.03;58.28;;;563.30;2432.00;;;;;;4991917;28;20421;-61
2023/08/18 00:38:58;;;;;;;61.50;55.75;;;563.30;2432.00;;;;;;4991798;28;20042;-60
2023/08/18 00:41:24;;;;;;;62.63;56.47;;;563.30;2432.00;;;;;;4991851;28;20616;-60
2023/08/18 00:43:50;;;;;;;63.65;57.45;;;563.40;2432.00;;;;;;4991874;28;20014;-61
2023/08/18 00:46:18;;;;;;;63.90;57.75;;;563.30;2432.00;;;;;;4991923;28;20507;-61
2023/08/18 00:48:44;;;;;;;60.38;54.83;;;563.40;2432.00;;;;;;4991693;28;20105;-60
2023/08/18 00:51:10;;;;;;;62.70;56.72;;;563.40;2432.00;;;;;;4991597;28;20034;-61
2023/08/18 00:53:39;;;;;;;63.95;57.97;;;563.50;2432.00;;;;;;4991651;28;20037;-60
2023/08/18 00:56:07;;;;;;;62.65;56.85;;;563.40;2432.00;;;;;;4991768;28;20488;-60
2023/08/18 00:58:34;;;;;;;64.22;58.25;;;563.40;2432.00;;;;;;4991377;28;20428;-62
2023/08/18 01:01:02;;;;;;;64.65;58.47;;;563.40;2432.00;;;;;;4991506;28;20018;-61
2023/08/18 01:03:28;;;;;;;64.10;57.97;;;563.40;2432.00;;;;;;4991816;28;20469;-59
2023/08/18 01:05:53;;;;;;;64.25;58.33;;;563.40;2432.00;;;;;;4990965;28;20015;-61
2023/08/18 01:08:19;;;;;;;63.45;57.63;;;563.50;2432.00;;;;;;4991543;28;20049;-62
2023/08/18 01:11:07;;;;;;;63.70;57.65;;;563.50;2432.00;;;;;;4991002;28;20057;-60
2023/08/18 01:14:02;;;;;;;61.25;55.45;;;563.60;2432.00;;;;;;4991025;28;20058;-61
2023/08/18 01:16:29;;;;;;;63.92;57.35;;;563.60;2432.00;;;;;;4991536;28;20049;-60
2023/08/18 01:18:55;;;;;;;63.97;57.85;;;563.60;2432.00;;;;;;4990855;28;20030;-60
2023/08/18 01:21:24;;;;;;;62.70;56.95;;;563.60;2432.00;;;;;;4991216;28;20028;-61
2023/08/18 01:23:50;;;;;;;64.50;58.40;;;563.60;2432.00;;;;;;4991040;28;20393;-60
2023/08/18 01:26:16;;;;;;;62.13;55.75;;;563.60;2432.00;;;;;;4991193;28;20034;-61
2023/08/18 01:28:43;;;;;;;67.60;61.15;;;563.60;2432.00;;;;;;4990695;28;20022;-61
2023/08/18 01:31:21;;;;;;;64.10;58.00;;;563.60;2432.00;;;;;;4990742;28;20109;-62
2023/08/18 01:33:52;;;;;;;68.80;62.38;;;563.50;2432.00;;;;;;4991018;28;20031;-61
2023/08/18 01:36:21;;;;;;;63.03;57.13;;;563.40;2432.00;;;;;;4990948;28;20389;-61
2023/08/18 01:38:49;;;;;;;64.82;58.67;;;563.40;2432.00;;;;;;4990855;28;20076;-61
2023/08/18 01:41:20;;;;;;;64.63;58.45;;;563.50;2432.00;;;;;;4990764;28;20030;-60
2023/08/18 01:43:47;;;;;;;64.90;58.92;;;563.40;2432.00;;;;;;4990611;28;20489;-61
2023/08/18 01:46:12;;;;;;;67.00;60.53;;;563.40;2432.00;;;;;;4977653;28;20165;-61
2023/08/18 01:48:38;;;;;;;63.83;57.75;;;563.50;2432.00;;;;;;4990984;28;20292;-61
2023/08/18 01:51:04;;;;;;;63.88;57.72;;;563.50;2432.00;;;;;;4990120;28;20061;-60
2023/08/18 01:53:29;;;;;;;66.82;60.53;;;563.40;2432.00;;;;;;4990793;28;20033;-61
2023/08/18 01:55:58;;;;;;;66.95;60.67;;;563.40;2432.00;;;;;;4990331;28;20027;-60
2023/08/18 01:58:24;;;;;;;66.75;60.20;;;563.30;2432.00;;;;;;4990404;28;20081;-61
2023/08/18 02:00:54;;;;;;;67.30;60.88;;;563.30;2432.00;;;;;;4990450;28;20504;-61
2023/08/18 02:03:20;;;;;;;63.53;57.53;;;563.30;2432.00;;;;;;4990801;28;20372;-61
2023/08/18 02:05:45;;;;;;;69.63;63.25;;;563.30;2432.00;;;;;;4990080;28;20034;-62
2023/08/18 02:08:11;;;;;;;69.22;62.35;;;563.30;2432.00;;;;;;4990263;28;20026;-62
2023/08/18 02:10:37;;;;;;;68.53;61.67;;;563.20;2432.00;;;;;;4990094;28;20034;-61
2023/08/18 02:13:03;;;;;;;66.75;60.05;;;538.50;2406.40;;;;;;4989830;28;20508;-62
2023/08/18 02:15:28;;;;;;;70.22;63.42;;;538.50;2406.40;;;;;;4990103;28;20524;-61
2023/08/18 02:17:54;;;;;;;69.28;62.88;;;538.40;2406.40;;;;;;4989732;28;20042;-60
2023/08/18 02:20:20;;;;;;;66.18;59.85;;;538.40;2406.40;;;;;;4989987;28;20018;-62
2023/08/18 02:22:45;;;;;;;66.57;60.25;;;538.50;2406.40;;;;;;4990014;28;20026;-61
2023/08/18 02:25:11;;;;;;;72.45;65.40;;;538.50;2406.40;;;;;;4989652;28;20026;-61
2023/08/18 02:27:37;;;;;;;70.78;63.95;;;538.50;2406.40;;;;;;4990351;28;20027;-61
2023/08/18 02:30:03;;;;;;;69.93;63.53;;;538.50;2406.40;;;;;;4989303;28;20030;-61
2023/08/18 02:32:29;;;;;;;69.75;62.95;;;538.50;2406.40;;;;;;4990108;28;20034;-61
2023/08/18 02:34:55;;;;;;;71.43;64.57;;;538.50;2406.40;;;;;;4989876;28;20030;-61
2023/08/18 02:37:20;;;;;;;66.68;60.42;;;538.50;2406.40;;;;;;4989856;28;20504;-61
2023/08/18 02:39:46;;;;;;;67.13;60.65;;;538.40;2406.40;;;;;;4989832;28;20033;-61
2023/08/18 02:42:12;;;;;;;68.57;61.95;;;538.40;2406.40;;;;;;4989255;28;20114;-62
2023/08/18 02:44:37;;;;;;;71.75;64.88;;;538.40;2406.40;;;;;;4991766;28;20022;-61
2023/08/18 02:47:03;;;;;;;75.32;68.28;;;538.40;2406.40;;;;;;4993328;28;20026;-61
2023/08/18 02:49:29;;;;;;;72.63;65.78;;;538.50;2406.40;;;;;;4994353;28;20022;-61
2023/08/18 02:51:55;;;;;;;71.90;64.82;;;538.50;2406.40;;;;;;4990236;28;20034;-60
2023/08/18 02:54:21;;;;;;;71.45;64.82;;;563.20;2432.00;;;;;;4990071;28;20554;-60
2023/08/18 02:56:47;;;;;;;69.88;63.38;;;563.20;2432.00;;;;;;4989862;28;20358;-61
2023/08/18 02:59:12;;;;;;;67.40;60.80;;;563.20;2432.00;;;;;;4989456;28;20030;-61
2023/08/18 03:01:38;;;;;;;71.53;64.30;;;563.30;2432.00;;;;;;4989727;28;20126;-61
2023/08/18 03:04:04;;;;;;;66.28;60.03;;;563.30;2432.00;;;;;;4989472;28;20038;-62
2023/08/18 03:06:29;;;;;;;68.68;61.92;;;563.30;2432.00;;;;;;4989731;28;20018;-61
2023/08/18 03:08:55;;;;;;;67.55;61.13;;;563.40;2432.00;;;;;;4989303;28;20089;-61
2023/08/18 03:11:23;;;;;;;69.78;63.30;;;563.30;2432.00;;;;;;4989943;28;20062;-62
2023/08/18 03:13:51;;;;;;;70.20;63.47;;;563.40;2432.00;;;;;;4989402;28;20054;-61
2023/08/18 03:16:18;;;;;;;68.90;62.60;;;563.40;2432.00;;;;;;4989681;28;20133;-61
2023/08/18 03:18:44;;;;;;;69.20;62.78;;;563.30;2432.00;;;;;;4989400;28;20031;-61
2023/08/18 03:21:10;;;;;;;72.95;65.88;;;563.40;2432.00;;;;;;4989828;28;20030;-61
2023/08/18 03:23:35;;;;;;;68.45;62.05;;;563.50;2432.00;;;;;;4989391;28;20432;-60
2023/08/18 03:26:03;;;;;;;70.65;63.95;;;563.40;2432.00;;;;;;4989536;28;20029;-60
2023/08/18 03:28:31;;;;;;;73.70;66.93;;;563.40;2432.00;;;;;;4989351;28;20052;-61
2023/08/18 03:31:01;;;;;;;70.72;64.25;;;563.30;2432.00;;;;;;4989256;28;20524;-60
2023/08/18 03:33:27;;;;;;;67.88;61.75;;;563.30;2432.00;;;;;;4989433;28;20074;-61
2023/08/18 03:35:54;;;;;;;71.32;64.47;;;563.30;2432.00;;;;;;4989138;28;20037;-61
2023/08/18 03:38:21;;;;;;;70.03;63.30;;;563.30;2432.00;;;;;;4989265;28;20110;-62
2023/08/18 03:40:47;;;;;;;68.80;62.33;;;563.30;2432.00;;;;;;4989668;28;20031;-61
2023/08/18 03:43:13;;;;;;;68.90;62.20;;;563.30;2432.00;;;;;;4989325;28;20054;-61
2023/08/18 03:45:38;;;;;;;70.30;63.55;;;563.30;2432.00;;;;;;4983611;28;20066;-60
2023/08/18 03:48:04;;;;;;;69.57;63.03;;;563.20;2432.00;;;;;;4981596;28;20033;-61
2023/08/18 03:50:30;;;;;;;64.90;58.92;;;563.30;2432.00;;;;;;4989084;28;20042;-60
2023/08/18 03:52:55;;;;;;;67.82;61.58;;;563.30;2432.00;;;;;;4989196;28;20105;-61
2023/08/18 03:55:22;;;;;;;65.78;59.63;;;563.30;2432.00;;;;;;4990830;28;20029;-60
2023/08/18 03:57:47;;;;;;;69.13;62.67;;;563.40;2432.00;;;;;;4993088;28;20045;-61
2023/08/18 04:00:13;;;;;;;66.55;60.28;;;563.40;2432.00;;;;;;4978953;28;20113;-61
2023/08/18 04:02:39;;;;;;;67.75;61.35;;;563.50;2432.00;;;;;;4993005;28;20045;-60
2023/08/18 04:05:06;;;;;;;66.50;60.28;;;563.50;2432.00;;;;;;4992628;28;20380;-60
2023/08/18 04:07:31;;;;;;;67.10;60.67;;;563.50;2432.00;;;;;;4992802;28;20030;-63
2023/08/18 04:09:57;;;;;;;70.78;63.88;;;563.40;2432.00;;;;;;4979711;28;20363;-60
2023/08/18 04:12:23;;;;;;;69.35;62.90;;;563.40;2432.00;;;;;;4991816;28;20501;-61
2023/08/18 04:14:49;;;;;;;65.30;59.00;;;563.50;2432.00;;;;;;4985416;28;20062;-60
2023/08/18 04:17:15;;;;;;;67.88;61.58;;;563.60;2432.00;;;;;;4986400;28;20525;-60
2023/08/18 04:19:40;;;;;;;67.53;61.00;;;563.60;2432.00;;;;;;4984524;28;20501;-63
2023/08/18 04:22:06;;;;;;;65.10;58.58;;;563.70;2432.00;;;;;;4974096;28;20089;-60
2023/08/18 04:24:32;;;;;;;61.75;55.55;;;563.70;2432.00;;;;;;4992515;28;20029;-64
2023/08/18 04:27:00;;;;;;;61.17;55.33;;;563.70;2432.00;;;;;;4992248;28;20475;-63
2023/08/18 04:29:27;;;;;;;58.65;52.92;;;563.80;2432.00;;;;;;4992402;28;20030;-63
2023/08/18 04:31:53;;;;;;;58.80;53.22;;;563.90;2432.00;;;;;;4991906;28;20022;-59
2023/08/18 04:34:19;;;;;;;60.47;54.88;;;563.90;2432.00;;;;;;4992783;28;20079;-65
2023/08/18 04:36:44;;;;;;;58.90;53.25;;;564.10;2432.00;;;;;;4989717;28;20477;-63
2023/08/18 04:39:11;;;;;;;66.65;60.05;;;564.10;2432.00;;;;;;4972704;28;20046;-70
2023/08/18 04:41:36;;;;;;;64.57;58.42;;;563.80;2432.00;;;;;;4990801;28;20036;-71
2023/08/18 04:44:03;;;;;;;67.22;60.90;;;563.90;2432.00;;;;;;4991925;28;20026;-71
2023/08/18 04:46:29;;;;;;;64.43;58.53;;;564.00;2432.00;;;;;;4991804;28;20031;-72
2023/08/18 04:48:55;;;;;;;68.57;61.90;;;564.10;2432.00;;;;;;4991688;28;20026;-70
2023/08/18 04:51:21;;;;;;;62.08;56.40;;;564.00;2432.00;;;;;;4973852;28;20433;-69
2023/08/18 04:53:47;;;;;;;63.75;57.40;;;588.90;2432.00;;;;;;4991649;28;20034;-67
2023/08/18 04:56:12;;;;;;;59.47;53.90;;;589.10;2432.00;;;;;;4991919;28;20092;-69
2023/08/18 04:58:38;;;;;;;56.72;51.55;;;589.20;2432.00;;;;;;4991855;28;20503;-70
2023/08/18 05:01:04;;;;;;;57.63;52.17;;;589.30;2432.00;;;;;;4991585;28;20026;-71
2023/08/18 05:03:31;;;;;;;55.85;50.67;;;589.30;2432.00;;;;;;4991556;28;20464;-71
2023/08/18 05:06:15;;;;;;;65.65;59.67;;;589.50;2432.00;;;;;;4990898;28;20023;-72
2023/08/18 05:08:40;;;;;;;63.83;57.78;;;589.10;2432.00;;;;;;4991416;28;20085;-72
2023/08/18 05:11:09;;;;;;;63.53;57.80;;;589.30;2432.00;;;;;;4991439;28;20022;-68
2023/08/18 05:13:35;;;;;;;62.08;56.15;;;589.30;2432.00;;;;;;4991078;28;20054;-70
2023/08/18 05:16:03;;;;;;;59.55;53.97;;;589.50;2432.00;;;;;;4991080;28;20069;-67
2023/08/18 05:18:29;;;;;;;53.55;48.70;;;614.50;2432.00;;;;;;4991420;28;20092;-68
2023/08/18 05:20:56;;;;;;;54.05;49.28;;;614.60;2432.00;;;;;;4990762;28;20025;-69
2023/08/18 05:23:22;;;;;;;55.53;50.17;;;614.60;2432.00;;;;;;4991554;28;20162;-61
2023/08/18 05:25:48;;;;;;;55.03;49.92;;;614.80;2432.00;;;;;;4991254;28;20072;-70
2023/08/18 05:28:17;;;;;;;57.13;51.78;;;615.00;2432.00;;;;;;4990942;28;20113;-69
2023/08/18 05:30:46;;;;;;;57.20;51.90;;;615.10;2432.00;;;;;;4990861;28;20034;-70
2023/08/18 05:33:12;;;;;;;57.20;51.65;;;615.20;2432.00;;;;;;4990729;28;20044;-68
2023/08/18 05:35:38;;;;;;;56.50;50.83;;;640.20;2432.00;;;;;;4991231;28;20054;-69
2023/08/18 05:38:10;;;;;;;53.55;48.50;;;640.20;2432.00;;;;;;4990721;28;20086;-66
2023/08/18 05:40:41;;;;;;;54.45;49.33;;;640.40;2432.00;;;;;;4990538;28;20088;-69
2023/08/18 05:43:07;;;;;;;48.92;44.58;;;665.80;2432.00;;;;;;4991156;28;20085;-69
2023/08/18 05:45:36;;;;;;;51.80;47.10;;;665.90;2432.00;;;;;;4990692;28;20112;-70
2023/08/18 05:48:02;;;;;;;47.88;43.38;;;716.80;2432.00;;;;;;4972702;28;20037;-71
2023/08/18 05:50:29;;;;;;;45.13;41.38;;;768.40;2432.00;;;;;;4990720;28;20042;-69
2023/08/18 05:52:55;;;;;;;42.45;38.78;;;768.50;2432.00;;;;;;4990101;28;20025;-66
2023/08/18 05:55:21;;;;;;;44.28;40.50;;;743.10;2432.00;;;;;;4991014;28;20027;-66
2023/08/18 05:57:47;;;;;;;44.80;40.95;;;768.80;2432.00;;;;;;4990549;28;20046;-65
2023/08/18 06:00:14;;;;;;;43.67;40.17;;;794.10;2432.00;;;;;;4990523;28;20022;-70
2023/08/18 06:02:41;;;;;;;43.00;39.20;;;819.90;2355.20;;;;;;4990220;28;20034;-69
2023/08/18 06:05:10;;;;;;;41.95;38.75;;;870.70;2150.40;;;;;;4990249;28;20102;-68
2023/08/18 06:07:36;;;;;;;49.72;45.58;;;896.60;1996.80;;;;;;4990007;28;20014;-65
2023/08/18 06:10:05;;;;;;;43.63;40.13;;;922.40;1920.00;;;;;;4990232;28;20428;-68
2023/08/18 06:12:31;;;;;;;39.08;35.95;;;973.20;1792.00;;;;;;4990385;28;20089;-69
2023/08/18 06:14:56;;;;;;;40.50;37.10;;;998.60;1740.80;;;;;;4990010;28;20493;-67
2023/08/18 06:17:22;;;;;;;39.10;35.97;;;999.20;1664.00;;;;;;4989495;28;20053;-70
2023/08/18 06:19:48;;;;;;;37.88;34.70;;;999.00;1689.60;;;;;;4990434;28;20027;-70
2023/08/18 06:22:14;;;;;;;37.00;33.92;;;1024.90;1587.20;;;;;;4989968;28;20026;-70
2023/08/18 06:24:39;;;;;;;37.30;34.17;;;1049.60;1587.20;;;;;;4990374;28;20106;-70
2023/08/18 06:27:05;;;;;;;38.95;35.88;;;1049.90;1587.20;;;;;;4989899;28;20027;-73
2023/08/18 06:29:31;;;;;;;35.42;32.60;;;1050.40;1536.00;;;;;;4990140;28;20030;-72
2023/08/18 06:31:56;;;;;;;39.05;35.47;;;1050.20;1561.60;;;;;;4989934;28;20041;-70
2023/08/18 06:34:22;;;;;;;36.53;33.63;;;1075.20;1510.40;;;;;;4990083;28;20023;-68
2023/08/18 06:36:48;;;;;;;36.45;33.55;;;1075.90;1459.20;;;;;;4990140;28;20026;-65
2023/08/18 06:39:13;;;;;;;38.40;35.20;;;1100.80;1484.80;;;;;;4989859;28;20041;-66
2023/08/18 06:41:42;;;;;;;35.28;32.72;;;1075.90;1459.20;;;;;;4990125;28;20492;-74
2023/08/18 06:44:08;;;;;;;36.55;33.42;;;1075.60;1484.80;;;;;;4989922;28;20030;-72
2023/08/18 06:46:34;;;;;;;34.38;31.60;;;1101.10;1459.20;;;;;;4989648;28;20062;-66
2023/08/18 06:49:01;;;;;;;33.75;31.45;;;1126.70;1408.00;;;;;;4972302;28;20073;-67
2023/08/18 06:51:27;;;;;;;33.78;31.23;;;1101.60;1433.60;;;;;;4996235;28;20018;-67
2023/08/18 06:53:53;;;;;;;36.22;33.38;;;1127.30;1382.40;;;;;;4997070;28;20041;-65
2023/08/18 06:56:19;;;;;;;35.92;33.33;;;1101.10;1433.60;;;;;;4996306;28;20073;-71
2023/08/18 06:58:45;;;;;;;35.78;33.28;;;1101.40;1408.00;;;;;;4989851;28;20034;-71
2023/08/18 07:01:10;;;;;;;36.00;33.35;;;1101.10;1459.20;;;;;;4989642;28;20493;-72
2023/08/18 07:03:36;;;;;;;35.95;33.45;;;1101.30;1408.00;;;;;;4989864;28;20030;-74
2023/08/18 07:06:02;;;;;;;33.33;30.90;;;1126.70;1433.60;;;;;;4989794;28;20033;-72
2023/08/18 07:08:28;;;;;;;32.58;29.67;;;1152.60;1331.20;;;;;;4989846;28;20431;-74
2023/08/18 07:10:54;;;;;;;32.10;29.70;;;1127.00;1382.40;;;;;;4989520;28;20031;-72
2023/08/18 07:13:22;;;;;;;33.25;30.33;;;1127.30;1382.40;;;;;;4989864;28;20062;-69
2023/08/18 07:15:49;;;;;;;29.90;27.67;;;1126.70;1382.40;;;;;;4989647;28;20034;-71
2023/08/18 07:18:17;;;;;;;31.40;28.77;;;1152.20;1331.20;;;;;;4989937;28;20034;-73
2023/08/18 07:20:43;;;;;;;29.50;26.98;;;1152.60;1305.60;;;;;;4989919;28;20030;-70
2023/08/18 07:23:09;;;;;;;27.27;24.85;;;1075.80;1408.00;;;;;;4989284;28;20074;-68
2023/08/18 07:25:36;;;;;;;25.75;23.58;;;1049.60;1484.80;;;;;;4978164;28;20408;-72
2023/08/18 07:28:02;;;;;;;24.23;22.38;;;1024.40;1510.40;;;;;;4989665;28;20034;-74
2023/08/18 07:30:28;;;;;;;24.67;22.67;;;998.80;1561.60;;;;;;4993150;28;20369;-74
2023/08/18 07:32:55;;;;;;;25.23;23.08;;;972.90;1638.40;;;;;;4993267;28;20026;-74
2023/08/18 07:35:22;;;;;;;23.15;21.45;;;948.10;1587.20;;;;;;4993147;28;20041;-63
2023/08/18 07:37:47;;;;;;;21.73;19.98;;;921.70;1715.20;;;;;;4993825;28;20039;-74
2023/08/18 07:40:13;;;;;;;23.52;21.50;;;896.50;1740.80;;;;;;4992956;28;20033;-71
2023/08/18 07:42:39;;;;;;;24.25;22.05;;;871.10;1792.00;;;;;;4993508;28;20145;-73
2023/08/18 07:45:06;;;;;;;24.17;21.75;;;870.50;1817.60;;;;;;4993009;28;20050;-71
2023/08/18 07:47:34;;;;;;;23.20;21.13;;;870.70;1817.60;;;;;;4993131;28;20029;-71
2023/08/18 07:49:59;;;;;;;24.73;22.38;;;870.60;1817.60;;;;;;4975311;28;20027;-73
2023/08/18 07:52:25;;;;;;;25.77;23.67;;;870.90;1817.60;;;;;;4992896;28;20030;-74
2023/08/18 07:54:51;;;;;;;24.95;22.67;;;870.90;1843.20;;;;;;4993053;28;20019;-74
2023/08/18 07:57:17;;;;;;;23.40;21.40;;;871.10;1817.60;;;;;;4981050;28;20070;-74
2023/08/18 07:59:43;;;;;;;23.95;21.75;;;870.70;1817.60;;;;;;4992026;28;20053;-74
2023/08/18 08:02:08;;;;;;;26.48;23.90;;;870.90;1843.20;;;;;;4993334;28;20129;-73
2023/08/18 08:04:34;;;;;;;25.40;22.83;;;870.90;1817.60;;;;;;4992359;28;20417;-65
2023/08/18 08:07:00;;;;;;;23.67;21.77;;;871.00;1792.00;;;;;;4992756;28;20469;-73
2023/08/18 08:09:26;;;;;;;23.73;22.00;;;896.80;1715.20;;;;;;4992704;28;20121;-73
2023/08/18 08:11:52;;;;;;;24.98;22.55;;;896.60;1740.80;;;;;;4992752;28;20388;-66
2023/08/18 08:14:19;;;;;;;28.05;25.55;;;922.00;1689.60;;;;;;4975890;28;20046;-74
2023/08/18 08:16:45;;;;;;;31.20;28.45;;;922.20;1715.20;;;;;;4992422;28;20023;-74
2023/08/18 08:19:13;;;;;;;29.70;27.15;;;973.20;1612.80;;;;;;4992907;28;20037;-69
2023/08/18 08:21:42;;;;;;;34.85;31.73;;;973.10;1612.80;;;;;;4992812;28;20053;-74
2023/08/18 08:24:08;;;;;;;34.92;32.20;;;998.80;1612.80;;;;;;4975330;28;20464;-74
2023/08/18 08:26:34;;;;;;;33.35;30.33;;;1049.90;1561.60;;;;;;4992688;28;20100;-73
2023/08/18 08:29:00;;;;;;;34.25;31.45;;;1075.30;1484.80;;;;;;4992360;28;20044;-71
2023/08/18 08:31:26;;;;;;;34.33;31.38;;;972.80;1664.00;;;;;;4992286;28;20384;-73
2023/08/18 08:33:51;;;;;;;29.92;27.42;;;922.40;1715.20;;;;;;4992777;28;20022;-63
2023/08/18 08:36:17;;;;;;;29.60;27.35;;;948.00;1638.40;;;;;;4992232;28;20412;-70
2023/08/18 08:38:43;;;;;;;27.40;25.02;;;999.00;1561.60;;;;;;4992107;28;20424;-70
2023/08/18 08:41:08;;;;;;;28.30;25.92;;;999.20;1561.60;;;;;;4989804;28;20031;-68
2023/08/18 08:43:35;;;;;;;30.02;27.40;;;998.80;1587.20;;;;;;4990312;28;20033;-68
2023/08/18 08:46:01;;;;;;;31.48;29.02;;;973.00;1638.40;;;;;;4990647;28;20399;-69
2023/08/18 08:48:38;;;;;;;32.15;29.52;;;973.30;1664.00;;;;;;4990532;28;20026;-68
2023/08/18 08:51:08;;;;;;;31.77;29.08;;;922.50;1689.60;;;;;;4990036;28;20033;-70
2023/08/18 08:53:39;;;;;;;32.45;30.05;;;922.00;1715.20;;;;;;4990464;28;20089;-70
2023/08/18 08:56:07;;;;;;;31.57;29.07;;;896.30;1766.40;;;;;;4990409;28;20026;-69
2023/08/18 08:58:34;;;;;;;34.78;31.88;;;870.90;1817.60;;;;;;4990091;28;20038;-66
2023/08/18 09:01:01;;;;;;;32.90;30.08;;;870.70;1868.80;;;;;;4990486;28;20025;-70
2023/08/18 09:03:28;;;;;;;30.80;28.10;;;871.00;1843.20;;;;;;4990509;28;20030;-70
2023/08/18 09:05:55;;;;;;;32.72;29.90;;;896.00;1817.60;;;;;;4990082;28;20045;-68
2023/08/18 09:08:21;;;;;;;32.35;29.40;;;896.10;1817.60;;;;;;4989939;28;20039;-69
2023/08/18 09:10:47;;;;;;;29.30;26.80;;;896.10;1792.00;;;;;;4990355;28;20041;-69
2023/08/18 09:13:13;;;;;;;28.65;26.35;;;896.90;1766.40;;;;;;4989795;28;20042;-69
2023/08/18 09:15:44;;;;;;;30.65;28.13;;;922.00;1766.40;;;;;;4990056;28;20033;-66
2023/08/18 09:18:12;;;;;;;32.03;29.42;;;922.30;1766.40;;;;;;4990025;28;20046;-68
2023/08/18 09:20:38;;;;;;;32.45;29.45;;;896.40;1792.00;;;;;;4989964;28;20030;-64
2023/08/18 09:23:04;;;;;;;31.50;28.92;;;896.50;1792.00;;;;;;4976958;28;20236;-68
2023/08/18 09:25:36;;;;;;;29.73;27.35;;;870.90;1868.80;;;;;;4990130;28;20041;-66
2023/08/18 09:28:03;;;;;;;31.58;28.77;;;870.60;1868.80;;;;;;4989944;28;20041;-62
2023/08/18 09:30:30;;;;;;;31.73;29.17;;;871.30;1843.20;;;;;;4989660;28;20105;-69
2023/08/18 09:32:59;;;;;;;29.98;27.27;;;871.30;1843.20;;;;;;4991802;28;20022;-68
2023/08/18 09:35:25;;;;;;;32.20;29.10;;;870.90;1843.20;;;;;;4991447;28;20046;-67
2023/08/18 09:37:57;;;;;;;29.40;26.80;;;870.50;1868.80;;;;;;4991419;28;20121;-68
2023/08/18 09:40:23;;;;;;;29.00;26.58;;;870.40;1868.80;;;;;;4991156;28;20113;-64
2023/08/18 09:42:49;;;;;;;29.08;26.52;;;870.70;1843.20;;;;;;4991576;28;20093;-62
2023/08/18 09:45:15;;;;;;;28.95;26.40;;;845.50;1894.40;;;;;;4991049;28;20484;-68
2023/08/18 09:47:42;;;;;;;29.23;26.73;;;845.40;1920.00;;;;;;4991274;28;20030;-68
2023/08/18 09:50:13;;;;;;;28.60;26.30;;;845.30;1920.00;;;;;;4991238;28;20408;-68
2023/08/18 09:52:41;;;;;;;28.52;26.20;;;845.30;1945.60;;;;;;4991219;28;20030;-66
2023/08/18 09:55:19;;;;;;;30.55;27.95;;;845.10;1945.60;;;;;;4990988;28;20022;-67
2023/08/18 09:57:57;;;;;;;30.08;27.38;;;845.20;1971.20;;;;;;4990656;28;20038;-68
2023/08/18 10:00:25;;;;;;;31.00;28.40;;;845.20;1971.20;;;;;;4990784;28;20372;-63
2023/08/18 10:02:55;;;;;;;29.35;26.95;;;844.80;1971.20;;;;;;4991081;28;20149;-67
2023/08/18 10:05:21;;;;;;;30.65;28.08;;;820.10;1971.20;;;;;;4990876;28;20037;-66
2023/08/18 10:07:47;;;;;;;30.67;28.08;;;844.90;1971.20;;;;;;4990684;28;20069;-68
2023/08/18 10:10:14;;;;;;;31.27;28.45;;;819.80;1971.20;;;;;;4990405;28;20381;-67
2023/08/18 10:12:43;;;;;;;32.75;30.05;;;820.00;1971.20;;;;;;4990282;28;20054;-68
2023/08/18 10:15:09;;;;;;;31.70;29.10;;;819.70;1971.20;;;;;;4990663;28;20036;-66
2023/08/18 10:17:35;;;;;;;32.13;28.75;;;819.30;1996.80;;;;;;4977599;28;20030;-66
2023/08/18 10:20:03;;;;;;;32.22;29.23;;;819.50;1996.80;;;;;;4990443;28;20521;-67
2023/08/18 10:22:32;;;;;;;31.48;28.52;;;820.00;2022.40;;;;;;4990633;28;20094;-67
2023/08/18 10:24:58;;;;;;;30.58;28.00;;;844.90;1996.80;;;;;;4990433;28;20018;-68
2023/08/18 10:27:42;;;;;;;29.23;26.67;;;819.60;1996.80;;;;;;4990326;28;20045;-67
2023/08/18 10:30:07;;;;;;;31.77;28.65;;;819.60;1971.20;;;;;;4985819;28;20015;-68
2023/08/18 10:32:33;;;;;;;31.42;28.23;;;819.80;1971.20;;;;;;4980431;28;20023;-68
2023/08/18 10:35:22;;;;;;;30.17;27.65;;;819.80;1971.20;;;;;;4990471;28;20037;-66
2023/08/18 10:37:52;;;;;;;32.60;29.67;;;820.10;1971.20;;;;;;4990454;28;20045;-68
2023/08/18 10:40:37;;;;;;;29.50;26.75;;;845.00;1996.80;;;;;;4990255;28;20041;-68
2023/08/18 10:43:12;;;;;;;30.95;28.17;;;844.80;1971.20;;;;;;4989971;28;20031;-68
2023/08/18 10:45:39;;;;;;;29.27;26.80;;;845.50;1945.60;;;;;;4990028;28;20049;-68
2023/08/18 10:48:06;;;;;;;27.50;25.00;;;845.30;1920.00;;;;;;4990162;28;20049;-68
2023/08/18 10:50:36;;;;;;;29.17;26.75;;;845.40;1920.00;;;;;;4990279;28;20024;-67
2023/08/18 10:53:04;;;;;;;30.27;27.55;;;844.90;1945.60;;;;;;4990308;28;20052;-63
2023/08/18 10:55:31;;;;;;;27.77;25.17;;;870.60;1894.40;;;;;;5001915;28;20050;-65
2023/08/18 10:57:57;;;;;;;28.67;26.33;;;845.40;1894.40;;;;;;5005188;28;20026;-67
2023/08/18 11:00:23;;;;;;;29.63;26.77;;;845.40;1894.40;;;;;;5002412;28;20029;-70
2023/08/18 11:02:50;;;;;;;29.55;26.90;;;845.70;1894.40;;;;;;4990152;28;20023;-68
2023/08/18 11:05:18;;;;;;;27.83;25.17;;;845.30;1894.40;;;;;;4996126;28;20021;-68
2023/08/18 11:07:45;;;;;;;27.20;24.65;;;845.20;1894.40;;;;;;4996249;28;20504;-66
2023/08/18 11:10:30;;;;;;;27.30;24.88;;;845.10;1920.00;;;;;;4996359;28;20072;-68
2023/08/18 11:12:58;;;;;;;26.08;23.73;;;845.30;1894.40;;;;;;4995658;28;20129;-68
2023/08/18 11:15:24;;;;;;;28.73;26.35;;;844.90;1945.60;;;;;;4996289;28;20077;-64
2023/08/18 11:17:50;;;;;;;27.40;25.10;;;844.90;1920.00;;;;;;4996753;28;20038;-64
2023/08/18 11:20:19;;;;;;;30.42;26.08;;;845.20;1894.40;;;;;;4996339;28;20029;-68
2023/08/18 11:22:48;;;;;;;27.73;25.42;;;845.50;1920.00;;;;;;4996099;28;20054;-66
2023/08/18 11:25:16;;;;;;;27.52;25.40;;;845.00;1920.00;;;;;;4996268;28;20046;-68
2023/08/18 11:27:44;;;;;;;30.98;27.83;;;845.00;1920.00;;;;;;4996159;28;20026;-66
2023/08/18 11:30:13;;;;;;;31.00;28.40;;;845.40;1945.60;;;;;;4996593;28;20026;-68
2023/08/18 11:32:40;;;;;;;28.02;25.30;;;845.50;1945.60;;;;;;4996283;28;20020;-66
2023/08/18 11:35:07;;;;;;;29.65;27.08;;;870.40;1920.00;;;;;;4995929;28;20409;-67
2023/08/18 11:37:39;;;;;;;28.98;26.50;;;870.40;1920.00;;;;;;4996157;28;20034;-67
2023/08/18 11:40:10;;;;;;;30.42;27.75;;;870.50;1945.60;;;;;;4995706;28;20023;-67
2023/08/18 11:42:42;;;;;;;29.45;26.85;;;845.50;1894.40;;;;;;4995962;28;20074;-67
2023/08/18 11:45:10;;;;;;;31.02;28.33;;;845.50;1920.00;;;;;;4996084;28;20029;-67
2023/08/18 11:47:36;;;;;;;32.28;29.27;;;845.70;1894.40;;;;;;4995914;28;20485;-68
2023/08/18 11:50:07;;;;;;;30.65;27.92;;;844.80;1945.60;;;;;;4996084;28;20085;-65
2023/08/18 11:52:46;;;;;;;33.08;30.27;;;819.70;1971.20;;;;;;4995708;28;20030;-67
2023/08/18 11:55:13;;;;;;;33.17;30.10;;;844.90;1945.60;;;;;;4995829;28;20041;-67
2023/08/18 11:57:41;;;;;;;32.67;29.80;;;845.50;1945.60;;;;;;4995953;28;20026;-69